sensor_id;sensor_type;location;lat;lon;timestamp;P1;durP1;ratioP1;P2;durP2;ratioP2
51479;SDS011;37556;44.570;18.612;2023-03-04T09:32:03;10.90;;;4.63;;
51479;SDS011;37556;44.570;18.612;2023-03-04T09:36:55;60.60;;;8.85;;
51479;SDS011;37556;44.570;18.612;2023-03-04T09:39:21;3.53;;;3.15;;
51479;SDS011;37556;44.570;18.612;2023-03-04T09:41:48;23.77;;;8.68;;
51479;SDS011;37556;44.570;18.612;2023-03-04T09:44:21;21.65;;;5.75;;
51479;SDS011;37556;44.570;18.612;2023-03-04T09:46:48;12.60;;;7.47;;
51479;SDS011;37556;44.570;18.612;2023-03-04T09:49:14;17.40;;;8.80;;
51479;SDS011;37556;44.570;18.612;2023-03-04T09:51:50;14.52;;;9.10;;
51479;SDS011;37556;44.570;18.612;2023-03-04T09:56:43;14.40;;;6.03;;
51479;SDS011;37556;44.570;18.612;2023-03-04T09:59:23;10.35;;;8.52;;
51479;SDS011;37556;44.570;18.612;2023-03-04T10:01:53;10.15;;;6.93;;
51479;SDS011;37556;44.570;18.612;2023-03-04T10:06:56;12.77;;;8.00;;
51479;SDS011;37556;44.570;18.612;2023-03-04T10:09:24;7.70;;;4.28;;
51479;SDS011;37556;44.570;18.612;2023-03-04T10:12:09;6.70;;;5.05;;
51479;SDS011;37556;44.570;18.612;2023-03-04T10:20:03;20.85;;;5.05;;
51479;SDS011;37556;44.570;18.612;2023-03-04T10:22:49;14.48;;;7.90;;
51479;SDS011;37556;44.570;18.612;2023-03-04T10:25:17;14.38;;;6.43;;
51479;SDS011;37556;44.570;18.612;2023-03-04T10:28:05;7.43;;;6.65;;
51479;SDS011;37556;44.570;18.612;2023-03-04T10:30:42;11.57;;;9.20;;
51479;SDS011;37556;44.570;18.612;2023-03-04T10:33:15;11.70;;;5.55;;
51479;SDS011;37556;44.570;18.612;2023-03-04T10:35:50;14.25;;;9.15;;
51479;SDS011;37556;44.570;18.612;2023-03-04T10:38:18;11.50;;;6.22;;
51479;SDS011;37556;44.570;18.612;2023-03-04T10:40:45;17.70;;;8.05;;
51479;SDS011;37556;44.570;18.612;2023-03-04T10:43:18;18.52;;;10.00;;
51479;SDS011;37556;44.570;18.612;2023-03-04T10:45:44;12.70;;;11.35;;
51479;SDS011;37556;44.570;18.612;2023-03-04T10:48:21;14.00;;;6.63;;
51479;SDS011;37556;44.570;18.612;2023-03-04T10:50:48;41.47;;;12.80;;
51479;SDS011;37556;44.570;18.612;2023-03-04T10:53:29;21.45;;;8.05;;
51479;SDS011;37556;44.570;18.612;2023-03-04T10:55:57;20.02;;;10.30;;
51479;SDS011;37556;44.570;18.612;2023-03-04T10:58:23;11.52;;;6.65;;
51479;SDS011;37556;44.570;18.612;2023-03-04T11:00:58;10.30;;;9.38;;
51479;SDS011;37556;44.570;18.612;2023-03-04T11:03:29;7.85;;;6.55;;
51479;SDS011;37556;44.570;18.612;2023-03-04T11:08:31;13.55;;;7.40;;
51479;SDS011;37556;44.570;18.612;2023-03-04T11:10:57;18.85;;;7.30;;
51479;SDS011;37556;44.570;18.612;2023-03-04T11:13:24;9.45;;;4.63;;
51479;SDS011;37556;44.570;18.612;2023-03-04T11:15:51;14.95;;;7.70;;
51479;SDS011;37556;44.570;18.612;2023-03-04T11:18:22;14.40;;;6.47;;
51479;SDS011;37556;44.570;18.612;2023-03-04T11:20:51;10.48;;;8.35;;
51479;SDS011;37556;44.570;18.612;2023-03-04T11:25:45;14.02;;;8.68;;
51479;SDS011;37556;44.570;18.612;2023-03-04T11:28:16;12.25;;;6.78;;
51479;SDS011;37556;44.570;18.612;2023-03-04T11:30:45;6.22;;;5.63;;
51479;SDS011;37556;44.570;18.612;2023-03-04T11:33:20;9.55;;;6.78;;
51479;SDS011;37556;44.570;18.612;2023-03-04T11:35:50;11.30;;;6.07;;
51479;SDS011;37556;44.570;18.612;2023-03-04T11:38:40;6.57;;;4.65;;
51479;SDS011;37556;44.570;18.612;2023-03-04T11:41:08;9.52;;;5.43;;
51479;SDS011;37556;44.570;18.612;2023-03-04T11:43:42;12.15;;;7.75;;
51479;SDS011;37556;44.570;18.612;2023-03-04T11:56:29;7.45;;;6.13;;
51479;SDS011;37556;44.570;18.612;2023-03-04T11:59:13;7.57;;;5.63;;
51479;SDS011;37556;44.570;18.612;2023-03-04T12:10:53;16.63;;;6.70;;
51479;SDS011;37556;44.570;18.612;2023-03-04T12:12:55;18.60;;;9.23;;
51479;SDS011;37556;44.570;18.612;2023-03-04T12:15:41;8.40;;;4.78;;
51479;SDS011;37556;44.570;18.612;2023-03-04T12:25:46;6.50;;;4.13;;
51479;SDS011;37556;44.570;18.612;2023-03-04T12:41:26;17.73;;;8.02;;
51479;SDS011;37556;44.570;18.612;2023-03-04T12:46:48;11.25;;;6.63;;
51479;SDS011;37556;44.570;18.612;2023-03-04T12:54:33;8.50;;;4.72;;
51479;SDS011;37556;44.570;18.612;2023-03-04T12:59:33;11.07;;;4.57;;
51479;SDS011;37556;44.570;18.612;2023-03-04T13:02:08;11.05;;;5.63;;
51479;SDS011;37556;44.570;18.612;2023-03-04T13:04:44;7.65;;;6.97;;
51479;SDS011;37556;44.570;18.612;2023-03-04T13:07:15;11.52;;;7.22;;
51479;SDS011;37556;44.570;18.612;2023-03-04T13:10:04;7.60;;;6.40;;
51479;SDS011;37556;44.570;18.612;2023-03-04T13:12:28;9.77;;;5.72;;
51479;SDS011;37556;44.570;18.612;2023-03-04T13:22:45;18.65;;;4.47;;
51479;SDS011;37556;44.570;18.612;2023-03-04T13:43:24;6.80;;;4.93;;
51479;SDS011;37556;44.570;18.612;2023-03-04T13:45:51;7.78;;;5.45;;
51479;SDS011;37556;44.570;18.612;2023-03-04T13:48:30;8.23;;;5.07;;
51479;SDS011;37556;44.570;18.612;2023-03-04T13:51:00;8.27;;;3.45;;
51479;SDS011;37556;44.570;18.612;2023-03-04T13:53:28;4.43;;;4.03;;
51479;SDS011;37556;44.570;18.612;2023-03-04T13:56:00;6.35;;;3.35;;
51479;SDS011;37556;44.570;18.612;2023-03-04T13:58:27;7.03;;;2.92;;
51479;SDS011;37556;44.570;18.612;2023-03-04T14:00:54;5.28;;;3.97;;
51479;SDS011;37556;44.570;18.612;2023-03-04T14:03:28;3.30;;;2.45;;
51479;SDS011;37556;44.570;18.612;2023-03-04T14:06:15;5.32;;;4.32;;
51479;SDS011;37556;44.570;18.612;2023-03-04T14:11:12;18.35;;;6.82;;
51479;SDS011;37556;44.570;18.612;2023-03-04T14:13:39;9.52;;;5.68;;
51479;SDS011;37556;44.570;18.612;2023-03-04T14:16:05;20.08;;;8.10;;
51479;SDS011;37556;44.570;18.612;2023-03-04T14:20:57;12.02;;;6.25;;
51479;SDS011;37556;44.570;18.612;2023-03-04T14:23:28;12.38;;;5.40;;
51479;SDS011;37556;44.570;18.612;2023-03-04T14:26:37;9.23;;;8.45;;
51479;SDS011;37556;44.570;18.612;2023-03-04T14:28:45;25.77;;;13.82;;
51479;SDS011;37556;44.570;18.612;2023-03-04T14:31:19;28.85;;;12.30;;
51479;SDS011;37556;44.570;18.612;2023-03-04T14:33:49;24.67;;;11.75;;
51479;SDS011;37556;44.570;18.612;2023-03-04T14:36:19;32.33;;;12.82;;
51479;SDS011;37556;44.570;18.612;2023-03-04T14:38:51;24.52;;;14.60;;
51479;SDS011;37556;44.570;18.612;2023-03-04T14:41:20;22.13;;;13.60;;
51479;SDS011;37556;44.570;18.612;2023-03-04T14:46:17;33.83;;;12.27;;
51479;SDS011;37556;44.570;18.612;2023-03-04T14:48:46;34.55;;;16.58;;
51479;SDS011;37556;44.570;18.612;2023-03-04T14:51:36;44.85;;;17.08;;
51479;SDS011;37556;44.570;18.612;2023-03-04T14:54:03;17.25;;;10.38;;
51479;SDS011;37556;44.570;18.612;2023-03-04T14:56:30;44.58;;;17.00;;
51479;SDS011;37556;44.570;18.612;2023-03-04T14:58:57;30.10;;;12.65;;
51479;SDS011;37556;44.570;18.612;2023-03-04T15:03:56;26.10;;;9.60;;
51479;SDS011;37556;44.570;18.612;2023-03-04T15:06:25;20.52;;;11.32;;
51479;SDS011;37556;44.570;18.612;2023-03-04T15:08:59;20.10;;;15.80;;
51479;SDS011;37556;44.570;18.612;2023-03-04T15:11:27;27.50;;;10.65;;
51479;SDS011;37556;44.570;18.612;2023-03-04T15:13:54;24.95;;;10.82;;
51479;SDS011;37556;44.570;18.612;2023-03-04T15:16:22;34.65;;;14.95;;
51479;SDS011;37556;44.570;18.612;2023-03-04T15:18:58;16.70;;;9.70;;
51479;SDS011;37556;44.570;18.612;2023-03-04T15:23:52;24.98;;;14.20;;
51479;SDS011;37556;44.570;18.612;2023-03-04T15:26:18;19.55;;;11.38;;
51479;SDS011;37556;44.570;18.612;2023-03-04T15:28:44;32.17;;;15.57;;
51479;SDS011;37556;44.570;18.612;2023-03-04T15:31:16;18.50;;;12.05;;
51479;SDS011;37556;44.570;18.612;2023-03-04T15:33:43;30.48;;;16.60;;
51479;SDS011;37556;44.570;18.612;2023-03-04T15:36:11;16.58;;;8.30;;
51479;SDS011;37556;44.570;18.612;2023-03-04T15:38:39;9.98;;;9.00;;
51479;SDS011;37556;44.570;18.612;2023-03-04T15:41:07;10.90;;;8.38;;
51479;SDS011;37556;44.570;18.612;2023-03-04T15:43:35;23.33;;;11.48;;
51479;SDS011;37556;44.570;18.612;2023-03-04T15:46:01;16.67;;;9.15;;
51479;SDS011;37556;44.570;18.612;2023-03-04T15:48:28;24.83;;;10.90;;
51479;SDS011;37556;44.570;18.612;2023-03-04T15:50:55;23.02;;;10.02;;
51479;SDS011;37556;44.570;18.612;2023-03-04T15:53:25;12.07;;;9.52;;
51479;SDS011;37556;44.570;18.612;2023-03-04T15:55:52;14.15;;;11.88;;
51479;SDS011;37556;44.570;18.612;2023-03-04T15:58:18;25.02;;;12.10;;
51479;SDS011;37556;44.570;18.612;2023-03-04T16:00:45;22.33;;;12.30;;
51479;SDS011;37556;44.570;18.612;2023-03-04T16:03:15;17.35;;;11.70;;
51479;SDS011;37556;44.570;18.612;2023-03-04T16:05:41;37.25;;;12.98;;
51479;SDS011;37556;44.570;18.612;2023-03-04T16:08:09;25.40;;;12.90;;
51479;SDS011;37556;44.570;18.612;2023-03-04T16:10:36;26.20;;;8.52;;
51479;SDS011;37556;44.570;18.612;2023-03-04T16:15:29;15.30;;;7.93;;
51479;SDS011;37556;44.570;18.612;2023-03-04T16:17:56;28.50;;;8.25;;
51479;SDS011;37556;44.570;18.612;2023-03-04T16:20:24;16.33;;;8.98;;
51479;SDS011;37556;44.570;18.612;2023-03-04T16:22:54;12.65;;;7.75;;
51479;SDS011;37556;44.570;18.612;2023-03-04T16:25:21;17.00;;;9.25;;
51479;SDS011;37556;44.570;18.612;2023-03-04T16:27:51;20.42;;;7.00;;
51479;SDS011;37556;44.570;18.612;2023-03-04T16:30:27;10.82;;;9.68;;
51479;SDS011;37556;44.570;18.612;2023-03-04T16:32:53;20.58;;;10.82;;
51479;SDS011;37556;44.570;18.612;2023-03-04T16:37:50;8.20;;;7.43;;
51479;SDS011;37556;44.570;18.612;2023-03-04T16:40:17;12.00;;;7.47;;
51479;SDS011;37556;44.570;18.612;2023-03-04T16:42:44;13.35;;;10.38;;
51479;SDS011;37556;44.570;18.612;2023-03-04T16:45:31;7.88;;;6.38;;
51479;SDS011;37556;44.570;18.612;2023-03-04T16:47:56;17.63;;;11.23;;
51479;SDS011;37556;44.570;18.612;2023-03-04T16:50:23;15.02;;;6.53;;
51479;SDS011;37556;44.570;18.612;2023-03-04T16:52:51;11.68;;;7.70;;
51479;SDS011;37556;44.570;18.612;2023-03-04T16:55:19;34.08;;;11.40;;
51479;SDS011;37556;44.570;18.612;2023-03-04T16:57:45;31.20;;;9.75;;
51479;SDS011;37556;44.570;18.612;2023-03-04T17:00:11;18.92;;;8.05;;
51479;SDS011;37556;44.570;18.612;2023-03-04T17:02:38;12.93;;;8.23;;
51479;SDS011;37556;44.570;18.612;2023-03-04T17:05:05;12.95;;;8.07;;
51479;SDS011;37556;44.570;18.612;2023-03-04T17:09:57;43.17;;;10.20;;
51479;SDS011;37556;44.570;18.612;2023-03-04T17:12:23;15.63;;;9.45;;
51479;SDS011;37556;44.570;18.612;2023-03-04T17:14:49;12.98;;;6.10;;
51479;SDS011;37556;44.570;18.612;2023-03-04T17:17:15;20.80;;;9.65;;
51479;SDS011;37556;44.570;18.612;2023-03-04T17:19:41;16.02;;;8.00;;
51479;SDS011;37556;44.570;18.612;2023-03-04T17:22:08;11.88;;;6.95;;
51479;SDS011;37556;44.570;18.612;2023-03-04T17:24:34;12.13;;;8.27;;
51479;SDS011;37556;44.570;18.612;2023-03-04T17:27:00;21.30;;;11.75;;
51479;SDS011;37556;44.570;18.612;2023-03-04T17:29:26;9.57;;;8.50;;
51479;SDS011;37556;44.570;18.612;2023-03-04T17:31:52;10.77;;;7.13;;
51479;SDS011;37556;44.570;18.612;2023-03-04T17:34:18;28.90;;;10.90;;
51479;SDS011;37556;44.570;18.612;2023-03-04T17:36:44;13.75;;;8.30;;
51479;SDS011;37556;44.570;18.612;2023-03-04T17:39:10;13.75;;;9.40;;
51479;SDS011;37556;44.570;18.612;2023-03-04T17:41:37;41.70;;;14.45;;
51479;SDS011;37556;44.570;18.612;2023-03-04T17:44:03;11.52;;;8.77;;
51479;SDS011;37556;44.570;18.612;2023-03-04T17:46:30;11.07;;;7.45;;
51479;SDS011;37556;44.570;18.612;2023-03-04T17:48:56;13.52;;;9.13;;
51479;SDS011;37556;44.570;18.612;2023-03-04T17:51:33;17.92;;;11.43;;
51479;SDS011;37556;44.570;18.612;2023-03-04T17:53:59;26.55;;;12.00;;
51479;SDS011;37556;44.570;18.612;2023-03-04T17:56:28;25.52;;;10.85;;
51479;SDS011;37556;44.570;18.612;2023-03-04T17:58:55;16.42;;;10.18;;
51479;SDS011;37556;44.570;18.612;2023-03-04T18:01:21;15.65;;;8.30;;
51479;SDS011;37556;44.570;18.612;2023-03-04T18:03:47;8.32;;;7.68;;
51479;SDS011;37556;44.570;18.612;2023-03-04T18:06:14;12.15;;;8.25;;
51479;SDS011;37556;44.570;18.612;2023-03-04T18:08:41;26.88;;;12.00;;
51479;SDS011;37556;44.570;18.612;2023-03-04T18:11:07;15.77;;;8.40;;
51479;SDS011;37556;44.570;18.612;2023-03-04T18:15:59;11.48;;;9.48;;
51479;SDS011;37556;44.570;18.612;2023-03-04T18:18:25;23.83;;;8.20;;
51479;SDS011;37556;44.570;18.612;2023-03-04T18:20:58;18.38;;;7.95;;
51479;SDS011;37556;44.570;18.612;2023-03-04T18:23:25;10.88;;;8.40;;
